Latest Weather Observations for Latrobe Valley

IDV60801

Issued at 7:42 am EDT Friday 21 January 2022 (issued every 10 minutes, with the page automatically refreshed every 10 minutes)

About weather observations | Map of weather stations | Latest weather observations for VIC | Other Formats
Station Details ID: 085280 Name: LATROBE VALLEY AIRPORT Lat: -38.21 Lon: 146.47 Height: 55.7 m
Data from the previous 72 hours. | See also: Recent months at Latrobe Valley
Date/Time
EDT
Temp
°C
App
Temp
°C
Dew
Point
°C
Rel
Hum
%
Delta-T
°C
Wind Press
QNH
hPa
Press
MSL
hPa
Rain since
9am
mm
Dir  Spd
km/h
Gust
km/h
Spd
kts
Gust
kts
21/07:30am 14.6 14.2 13.1 91 0.8 ENE 7 13 4 7 1028.9 1028.8 0.0
21/07:00am 13.1 12.5 12.2 94 0.5 ENE 7 9 4 5 1028.7 1028.6 0.0
21/06:30am 12.1 10.7 11.0 93 0.6 NE 9 11 5 6 1028.4 1028.3 0.0
21/06:00am 12.7 11.3 10.9 89 0.9 NNE 9 13 5 7 1028.1 1028.0 0.0
21/05:43am 14.6 13.8 12.8 89 1.0 E 9 15 5 8 1027.8 1027.7 0.0
21/05:30am 14.7 13.5 12.7 88 1.1 ENE 11 17 6 9 1027.7 1027.6 0.0
21/05:00am 15.3 13.8 13.2 87 1.2 E 13 19 7 10 1027.5 1027.4 0.0
21/04:30am 14.8 14.0 13.0 89 1.0 ENE 9 13 5 7 1027.5 1027.4 0.0
21/04:00am 14.4 14.1 12.6 89 1.0 E 6 11 3 6 1027.7 1027.6 0.0
21/03:30am 14.3 13.4 12.7 90 0.9 E 9 15 5 8 1027.6 1027.5 0.0
21/03:00am 13.9 12.9 12.3 90 0.9 ENE 9 13 5 7 1027.8 1027.7 0.0
21/02:34am 13.5 12.4 12.1 91 0.8 NE 9 13 5 7 1028.2 1028.1 0.0
21/02:30am 13.5 12.1 12.1 91 0.8 NE 11 13 6 7 1028.2 1028.1 0.0
21/02:00am 13.5 11.9 11.7 89 1.0 NE 11 13 6 7 1028.3 1028.2 0.0
21/01:30am 14.3 13.2 12.0 86 1.2 NE 9 13 5 7 1028.4 1028.3 0.0
21/01:00am 15.6 13.9 12.5 82 1.7 ENE 13 17 7 9 1028.6 1028.5 0.0
21/12:30am 15.8 14.1 12.5 81 1.8 ENE 13 19 7 10 1028.8 1028.7 0.0
21/12:00am 15.5 13.7 12.1 80 1.8 ENE 13 19 7 10 1029.0 1028.9 0.0
 
Date/Time
EDT
Temp
°C
App
Temp
°C
Dew
Point
°C
Rel
Hum
%
Delta-T
°C
Wind Press
QNH
hPa
Press
MSL
hPa
Rain since
9am
mm
Dir  Spd
km/h
Gust
km/h
Spd
kts
Gust
kts
20/11:30pm 15.5 13.7 12.1 80 1.9 ENE 13 20 7 11 1029.2 1029.1 0.0
20/11:00pm 15.8 14.0 12.2 79 2.0 ENE 13 22 7 12 1029.2 1029.1 0.0
20/10:30pm 16.1 13.9 12.1 77 2.2 ENE 15 24 8 13 1029.3 1029.2 0.0
20/10:00pm 16.7 13.7 11.8 73 2.7 ENE 19 30 10 16 1029.4 1029.3 0.0
20/09:30pm 17.1 14.1 11.8 71 2.9 ENE 19 30 10 16 1029.3 1029.2 0.0
20/09:00pm 17.5 14.4 11.5 68 3.3 ENE 19 32 10 17 1029.0 1028.9 0.0
20/08:30pm 18.1 14.7 11.4 65 3.7 ENE 20 32 11 17 1028.5 1028.4 0.0
20/08:00pm 18.9 15.3 11.7 63 3.9 ENE 22 35 12 19 1028.1 1028.0 0.0
20/07:30pm 19.5 16.5 12.0 62 4.2 E 19 35 10 19 1028.0 1027.9 0.0
20/07:00pm 20.1 16.5 11.8 59 4.6 E 22 33 12 18 1027.7 1027.6 0.0
20/06:30pm 20.9 17.3 11.8 56 5.1 E 22 33 12 18 1027.4 1027.3 0.0
20/06:00pm 22.1 18.5 11.8 52 5.8 ENE 22 33 12 18 1027.3 1027.2 0.0
20/05:30pm 22.4 18.6 11.2 49 6.2 ENE 22 33 12 18 1027.3 1027.2 0.0
20/05:00pm 23.1 19.7 12.4 51 6.1 ENE 22 32 12 17 1027.5 1027.4 0.0
20/04:30pm 22.7 18.6 11.4 49 6.3 ENE 24 44 13 24 1027.6 1027.5 0.0
20/04:00pm 22.5 18.2 10.9 47 6.4 ENE 24 37 13 20 1028.1 1028.0 0.0
20/03:30pm 23.4 19.4 13.0 52 6.0 ENE 26 41 14 22 1028.4 1028.3 0.0
20/03:12pm 22.3 17.3 10.8 48 6.4 ENE 28 48 15 26 1028.3 1028.2 0.0
20/03:00pm 22.6 17.7 11.4 49 6.2 ENE 28 39 15 21 1028.6 1028.5 0.0
20/02:30pm 22.9 18.6 11.9 50 6.2 ENE 26 44 14 24 1028.9 1028.8 0.0
20/02:00pm 21.9 17.1 10.4 48 6.3 ENE 26 43 14 23 1029.1 1029.0 0.0
20/01:33pm 22.1 17.3 11.5 51 5.9 E 28 46 15 25 1029.2 1029.1 0.0
20/01:30pm 21.9 16.9 11.0 50 6.0 ENE 28 43 15 23 1029.3 1029.2 0.0
20/01:00pm 21.4 16.9 11.4 53 5.5 ENE 26 43 14 23 1029.6 1029.5 0.0
20/12:30pm 22.1 17.2 11.2 50 6.1 ENE 28 43 15 23 1029.6 1029.5 0.0
20/12:20pm 21.5 16.2 10.0 48 6.2 ENE 28 46 15 25 1029.8 1029.7 0.0
20/12:00pm 21.4 17.1 10.6 50 5.9 ENE 24 37 13 20 1029.9 1029.8 0.0
20/11:30am 21.1 16.7 10.3 50 5.9 E 24 35 13 19 1030.1 1030.0 0.0
20/11:00am 20.6 15.7 9.8 50 5.8 ENE 26 41 14 22 1030.0 1029.9 0.0
20/10:30am 20.3 15.2 10.7 54 5.2 ENE 28 43 15 23 1029.9 1029.8 0.0
20/10:02am 19.7 14.2 9.3 51 5.5 ENE 28 46 15 25 1029.6 1029.5 0.0
20/10:00am 19.8 14.7 9.1 50 5.6 ENE 26 43 14 23 1029.8 1029.7 0.0
20/09:30am 19.2 14.9 10.7 58 4.6 ENE 24 35 13 19 1029.9 1029.8 0.0
20/09:00am 17.8 14.4 11.4 66 3.5 ENE 20 39 11 21 1029.9 1029.8 0.0
20/08:30am 16.4 13.4 11.8 74 2.5 ENE 19 28 10 15 1029.8 1029.7 0.0
20/08:00am 15.6 13.1 12.2 80 1.8 ENE 17 26 9 14 1029.7 1029.6 0.0
20/07:30am 14.3 11.9 12.5 89 1.0 NE 17 22 9 12 1029.6 1029.5 0.0
20/07:00am 13.3 10.7 11.9 91 0.7 NE 17 22 9 12 1029.9 1029.8 0.0
20/06:30am 13.4 11.2 12.0 91 0.8 ENE 15 20 8 11 1029.5 1029.4 0.0
20/06:00am 13.5 11.3 12.1 91 0.7 NE 15 19 8 10 1029.2 1029.1 0.0
20/05:30am 13.4 11.4 11.6 89 1.0 NE 13 17 7 9 1029.0 1028.9 0.0
20/05:00am 14.0 12.0 11.5 85 1.3 ENE 13 17 7 9 1028.7 1028.6 0.0
20/04:30am 14.6 12.6 11.4 81 1.7 ENE 13 19 7 10 1028.4 1028.3 0.0
20/04:00am 15.0 13.0 11.4 79 1.9 ENE 13 19 7 10 1028.4 1028.3 0.0
20/03:30am 15.1 12.7 11.3 78 2.0 E 15 20 8 11 1028.4 1028.3 0.0
20/03:00am 15.8 13.4 11.4 75 2.4 ENE 15 22 8 12 1028.6 1028.5 0.0
20/02:30am 16.0 13.7 11.6 75 2.4 E 15 22 8 12 1029.0 1028.9 0.0
20/02:00am 15.8 13.5 11.8 77 2.2 E 15 22 8 12 1029.2 1029.1 0.0
20/01:30am 15.8 13.9 11.8 77 2.2 E 13 20 7 11 1029.3 1029.2 0.0
20/01:00am 16.4 13.9 12.2 76 2.3 ENE 17 22 9 12 1029.0 1028.9 0.0
20/12:30am 16.2 13.7 12.4 78 2.1 E 17 28 9 15 1029.1 1029.0 0.0
20/12:00am 16.1 13.7 12.5 79 2.0 E 17 28 9 15 1028.9 1028.8 0.0
 
Date/Time
EDT
Temp
°C
App
Temp
°C
Dew
Point
°C
Rel
Hum
%
Delta-T
°C
Wind Press
QNH
hPa
Press
MSL
hPa
Rain since
9am
mm
Dir  Spd
km/h
Gust
km/h
Spd
kts
Gust
kts
19/11:30pm 16.0 13.9 12.4 79 2.0 E 15 22 8 12 1028.9 1028.8 0.0
19/11:00pm 16.0 13.5 12.4 79 2.0 E 17 28 9 15 1028.7 1028.6 0.0
19/10:30pm 16.0 13.5 12.4 79 2.0 E 17 28 9 15 1028.4 1028.3 0.0
19/10:00pm 16.1 13.2 12.3 78 2.1 E 19 28 10 15 1028.4 1028.3 0.0
19/09:30pm 16.5 13.9 12.1 75 2.4 E 17 30 9 16 1028.1 1028.0 0.0
19/09:00pm 16.9 13.9 11.8 72 2.8 E 19 30 10 16 1027.7 1027.6 0.0
19/08:30pm 17.5 14.4 11.5 68 3.3 E 19 33 10 18 1027.5 1027.4 0.0
19/08:00pm 18.5 15.5 10.8 61 4.1 E 17 30 9 16 1027.3 1027.2 0.0
19/07:30pm 18.8 14.9 10.9 60 4.3 ENE 22 37 12 20 1026.8 1026.7 0.0
19/07:00pm 18.8 14.8 10.4 58 4.5 ENE 22 37 12 20 1026.6 1026.5 0.0
19/06:30pm 19.5 15.8 10.2 55 5.0 E 20 33 11 18 1026.3 1026.2 0.0
19/06:00pm 19.5 15.6 10.8 57 4.7 ENE 22 33 12 18 1026.3 1026.2 0.0
19/05:30pm 19.7 15.3 10.4 55 5.0 E 24 37 13 20 1026.3 1026.2 0.0
19/05:00pm 19.8 14.9 11.3 58 4.7 E 28 43 15 23 1026.4 1026.3 0.0
19/04:30pm 19.6 15.3 10.9 57 4.7 E 24 37 13 20 1026.2 1026.1 0.0
19/04:00pm 19.4 15.1 10.7 57 4.7 E 24 41 13 22 1026.2 1026.1 0.0
19/03:30pm 19.9 16.1 11.1 57 4.8 E 22 43 12 23 1026.1 1026.0 0.0
19/03:00pm 20.1 15.9 11.1 56 4.9 E 24 37 13 20 1025.9 1025.8 0.0
19/02:30pm 20.5 16.6 10.9 54 5.3 ENE 22 37 12 20 1025.8 1025.7 0.0
19/02:00pm 20.6 16.8 11.2 55 5.2 ENE 22 37 12 20 1025.8 1025.7 0.0
19/01:30pm 19.9 16.4 10.9 56 4.9 E 20 35 11 19 1025.9 1025.8 0.0
19/01:00pm 19.9 16.4 10.9 56 4.9 ENE 20 37 11 20 1025.9 1025.8 0.0
19/12:30pm 19.7 16.2 10.9 57 4.8 E 20 37 11 20 1025.7 1025.6 0.0
19/12:00pm 19.8 15.9 12.1 61 4.3 E 24 39 13 21 1025.6 1025.5 0.0
19/11:30am 19.2 16.2 12.5 65 3.8 E 20 30 11 16 1025.5 1025.4 0.0
19/11:00am 19.7 16.9 13.2 66 3.7 E 20 35 11 19 1025.5 1025.4 0.0
19/10:30am 19.3 16.5 13.3 68 3.4 ENE 20 39 11 21 1025.4 1025.3 0.0
19/10:00am 18.6 15.0 13.2 71 3.0 ENE 24 37 13 20 1025.1 1025.0 0.0
19/09:30am 18.3 15.9 14.4 78 2.3 E 20 32 11 17 1024.8 1024.7 0.0
19/09:29am 18.2 15.8 14.5 79 2.1 E 20 32 11 17 1024.8 1024.7 0.0
19/09:09am 17.4 16.1 15.9 91 0.9 ENE 17 28 9 15 1024.7 1024.6 0.0
19/09:00am 17.1 15.8 15.8 92 0.8 ENE 17 26 9 14 1024.6 1024.5 4.6
19/08:58am 17.1 15.9 16.0 93 0.7 ENE 17 28 9 15 1024.6 1024.5 4.6
19/08:43am 16.5 14.7 15.5 94 0.6 ENE 19 28 10 15 1024.2 1024.1 4.6
19/08:30am 15.9 14.3 14.9 94 0.6 ENE 17 28 9 15 1024.1 1024.0 4.6
19/08:00am 15.6 13.9 14.8 95 0.5 ENE 17 24 9 13 1023.6 1023.5 4.0
19/07:30am 15.4 13.2 14.4 94 0.6 ENE 19 30 10 16 1022.8 1022.6 2.8
19/07:00am 15.5 13.7 14.5 94 0.6 ENE 17 26 9 14 1022.3 1022.1 2.2
19/06:30am 15.7 14.0 14.7 94 0.6 ENE 17 26 9 14 1021.9 1021.7 1.6
19/06:14am 15.5 14.1 14.5 94 0.6 ENE 15 24 8 13 1021.7 1021.5 1.6
19/06:03am 15.5 13.7 14.5 94 0.6 ENE 17 22 9 12 1021.5 1021.3 1.6
19/06:00am 15.5 14.1 14.5 94 0.6 ENE 15 22 8 12 1021.5 1021.3 1.6
19/05:52am 15.5 13.7 14.5 94 0.6 ENE 17 24 9 13 1021.3 1021.1 1.6
19/05:46am 15.4 13.6 14.4 94 0.6 ENE 17 24 9 13 1021.3 1021.1 1.6
19/05:30am 15.3 14.2 14.2 93 0.6 ENE 13 22 7 12 1021.1 1020.9 1.4
19/05:16am 15.2 14.0 13.9 92 0.7 ENE 13 20 7 11 1020.9 1020.7 1.4
19/05:15am 15.2 14.0 13.9 92 0.7 ENE 13 20 7 11 1020.9 1020.7 1.4
19/05:00am 15.1 13.8 13.6 91 0.8 ENE 13 19 7 10 1020.8 1020.6 1.4
19/04:51am 15.1 13.8 13.8 92 0.7 ENE 13 19 7 10 1020.7 1020.5 1.4
19/04:34am 15.2 13.5 13.7 91 0.8 ENE 15 20 8 11 1020.5 1020.3 1.4
19/04:30am 15.4 14.2 13.9 91 0.8 ENE 13 20 7 11 1020.5 1020.3 1.2
19/04:25am 15.5 14.3 14.0 91 0.8 ENE 13 19 7 10 1020.4 1020.2 1.2
19/04:00am 15.7 15.1 14.6 93 0.6 ENE 11 17 6 9 1020.1 1019.9 1.2
19/03:55am 15.6 15.0 14.5 93 0.6 ENE 11 17 6 9 1020.1 1019.9 1.2
19/03:30am 15.2 14.7 13.9 92 0.7 ENE 9 17 5 9 1019.8 1019.6 1.0
19/03:18am 15.1 14.6 13.8 92 0.7 ENE 9 17 5 9 1019.7 1019.5 1.0
19/03:00am 15.1 14.5 13.6 91 0.8 ENE 9 15 5 8 1019.7 1019.5 1.0
19/02:52am 15.1 14.5 13.6 91 0.8 E 9 13 5 7 1019.6 1019.4 1.0
19/02:50am 15.1 14.5 13.6 91 0.8 E 9 13 5 7 1019.7 1019.5 1.0
19/02:30am 15.0 14.4 13.4 90 0.9 ENE 9 15 5 8 1019.8 1019.6 1.0
19/02:06am 15.8 14.5 12.5 81 1.8 ENE 11 17 6 9 1019.9 1019.7 0.0
19/02:00am 16.1 15.2 12.5 79 2.0 ENE 9 11 5 6 1019.9 1019.7 0.0
19/01:30am 15.9 14.9 12.3 79 2.0 NE 9 13 5 7 1019.9 1019.7 0.0
19/01:17am 16.2 15.2 12.4 78 2.1 ENE 9 17 5 9 1019.9 1019.7 0.0
19/01:00am 16.2 15.2 12.4 78 2.1 E 9 13 5 7 1019.9 1019.7 0.0
19/12:30am 16.0 15.0 12.4 79 2.0 NE 9 13 5 7 1019.7 1019.5 0.0
19/12:00am 15.2 14.3 11.4 78 2.0 NE 7 9 4 5 1019.7 1019.5 0.0
 
Date/Time
EDT
Temp
°C
App
Temp
°C
Dew
Point
°C
Rel
Hum
%
Delta-T
°C
Wind Press
QNH
hPa
Press
MSL
hPa
Rain since
9am
mm
Dir  Spd
km/h
Gust
km/h
Spd
kts
Gust
kts
18/11:30pm 15.9 15.5 11.1 73 2.6 ENE 4 7 2 4 1019.6 1019.4 0.0
18/11:00pm 16.6 15.8 11.1 70 3.0 ESE 6 9 3 5 1019.6 1019.4 0.0
18/10:30pm 16.9 16.1 11.0 68 3.2 ESE 6 9 3 5 1019.5 1019.3 0.0
18/10:00pm 17.3 16.3 10.9 66 3.4 SE 7 13 4 7 1019.2 1019.0 0.0
18/09:30pm 17.8 16.7 10.7 63 3.8 S 7 11 4 6 1018.9 1018.7 0.0
18/09:00pm 18.1 16.9 10.2 60 4.2 S 7 11 4 6 1018.4 1018.2 0.0
18/08:30pm 18.6 16.9 9.9 57 4.6 SSW 9 13 5 7 1017.8 1017.6 0.0
18/08:00pm 19.2 16.5 10.2 56 4.8 SW 15 19 8 10 1017.3 1017.1 0.0
18/07:30pm 19.9 16.4 10.3 54 5.2 SW 19 24 10 13 1016.5 1016.3 0.0
18/07:00pm 20.4 17.0 10.5 53 5.4 SW 19 24 10 13 1016.3 1016.1 0.0
18/06:30pm 21.0 18.0 10.5 51 5.7 SW 17 24 9 13 1016.1 1015.9 0.0
18/06:00pm 21.9 18.5 10.7 49 6.2 SW 19 28 10 15 1015.8 1015.6 0.0
18/05:30pm 21.7 18.1 11.7 53 5.6 SW 22 28 12 15 1015.7 1015.5 0.0
18/05:00pm 22.1 19.0 10.3 47 6.4 SW 17 28 9 15 1016.0 1015.8 0.0
18/04:30pm 20.7 18.2 11.1 54 5.3 SW 15 20 8 11 1016.1 1015.9 0.0
18/04:00pm 22.0 18.8 11.1 50 6.0 SW 19 26 10 14 1016.0 1015.8 0.0
18/03:30pm 22.0 18.6 10.5 48 6.3 SW 19 28 10 15 1016.0 1015.8 0.0
18/03:00pm 21.4 17.7 9.6 47 6.3 SW 19 28 10 15 1016.1 1015.9 0.0
18/02:30pm 21.3 18.5 8.6 44 6.7 SW 13 24 7 13 1016.2 1016.0 0.0
18/02:00pm 20.9 17.5 10.4 51 5.7 SSW 19 30 10 16 1016.4 1016.2 0.0
18/01:30pm 20.4 17.0 9.0 48 6.0 SW 17 24 9 13 1016.5 1016.3 0.0
18/01:00pm 19.8 16.8 9.4 51 5.5 SSW 15 24 8 13 1016.7 1016.5 0.0
18/12:30pm 19.7 16.5 9.9 53 5.3 SW 17 22 9 12 1016.7 1016.5 0.0
18/12:00pm 20.4 17.6 11.3 56 5.0 SSW 17 24 9 13 1016.7 1016.5 0.0
18/11:30am 19.0 15.4 10.0 56 4.8 WSW 19 30 10 16 1017.0 1016.8 0.0
18/11:00am 18.9 16.5 9.9 56 4.8 WNW 13 19 7 10 1017.0 1016.8 0.0
18/10:30am 18.8 16.0 8.7 52 5.3 SW 13 20 7 11 1017.0 1016.8 0.0
18/10:00am 18.2 14.7 8.7 54 4.9 W 17 24 9 13 1016.9 1016.7 0.0
18/09:30am 17.6 15.6 10.0 61 4.0 SW 11 20 6 11 1016.8 1016.6 0.0
18/09:00am 16.9 14.8 9.8 63 3.7 WSW 11 15 6 8 1016.7 1016.5 0.0
18/08:30am 16.5 14.2 10.4 67 3.2 WSW 13 17 7 9 1016.5 1016.3 0.0
18/08:00am 16.1 14.8 11.3 73 2.6 W 9 13 5 7 1016.4 1016.2 0.0

Other formats

Comma delimited format used in spreadsheet applications
http://www.bom.gov.au/fwo/IDV60801/IDV60801.94891.axf

JavaScript Object Notation format (JSON) in row-major order
http://www.bom.gov.au/fwo/IDV60801/IDV60801.94891.json

Data quality

Most of these data are generated automatically and are frequently updated. Quality checks on data are not normally performed. It is possible for incorrect values to appear. Refer to information at About Latest Weather Observations and please check the disclaimer before using these data.